Aérodrome :
LOGIN :

S'inscrire | Disclaimer

   EN    FR    IT 

 










Légende :    VFR   VFR Marginal   IFR   IFR Intensif   IFR Très Intensif
Visi : 
Plafond : 
>= 8 km
>= 3000ft
5 à 8 km
1000 à 3000 ft
1500m à 5 km
500 à 1000 ft
800 à 1500m
200 à 500 ft
< 800m
< 200 ft
Symboles :   Orages  Brouillard  Fortes neiges  Fortes précipitations  Vent > 20 kt
SIGMETs :   Divers  Orages  Givrage  Turbulence  Onde Orograph.  Cendres Volcan.







- Altitude de l'aérodrome : 1276 ft
- Code IATA : STR


EDDS - Stuttgart

DERNIER METAR :
  • 210450Z 30015KT 9999 -SN FEW006 SCT011 BKN022 02/01 Q1007

METARs EXPIRÉS :
  • 210420Z 30017KT 9999 -SN FEW007 SCT011 BKN037 02/01 Q1006
  • 210350Z 30015KT 9999 -SNRA FEW007 SCT011 BKN035 02/01 Q1006
  • 210320Z 29008KT 9999 SCT008 BKN011 02/01 Q1005
  • 210250Z 30010KT 9999 SCT007 BKN011 02/01 Q1004
  • 210220Z 30009KT 260V320 9999 -SNRA SCT007 BKN011 02/01 Q1004
  • 210150Z 30011KT 9999 -RA SCT007 BKN010 02/01 Q1003

TAF TAF EDDS
Valide du 21 à 00h jusqu'au 22 à 00h UTC


202300Z 2100/2124 29004KT 9000 SCT010 BKN030
TEMPO 2100/2110 4000 -RASN BKN010
PROB40
TEMPO 2100/2105 2500 RASN BKN005
BECMG 2104/2106 30010KT
BECMG 2116/2119 16004KT
Pas de NOTAMs connus pour ce terrain.



MET'MAP, la Météo Aéronautique d'un coup d'oeil ! - Copyright ORBIFLY Décembre 2007 - Disclaimer

ORBIFLY MET'MAP TEAM :

Programmation & Développement : Alexandra Zaïnal
Conception & Développement : Baudouin d'Aumeries
Co-Programmation & Développement : Marc-Olivier Méhu
Soutien technique & logistique : Manuel Goepfert

Contact : metmap@orbifly.com




SOURCES & CREDITS :

   NOAA